Time;durP1;ratioP1;P1;durP2;ratioP2;P2;SDS_P1;SDS_P2;PMS_P1;PMS_P2;Temp;Humidity;BMP_temperature;BMP_pressure;BME280_temperature;BME280_humidity;BME280_pressure;Samples;Min_cycle;Max_cycle;Signal;HPM_P1;HPM_P2
2023/07/27 00:00:12;;;;;;;1.50;0.95;;;;;;;14.33;100.00;100043.38;5588830;31;33547;-63
2023/07/27 00:03:17;;;;;;;3.10;1.00;;;;;;;14.31;100.00;100053.44;5588550;31;34499;-64
2023/07/27 00:06:20;;;;;;;1.73;0.95;;;;;;;14.24;100.00;100055.25;5588606;31;34785;-63
2023/07/27 00:09:23;;;;;;;2.75;1.20;;;;;;;14.32;100.00;100047.09;5587716;31;33747;-63
2023/07/27 00:12:25;;;;;;;1.10;0.90;;;;;;;14.27;100.00;100046.87;5588453;31;33781;-62
2023/07/27 00:15:29;;;;;;;2.90;0.90;;;;;;;14.23;100.00;100044.81;5587666;31;33389;-63
2023/07/27 00:18:32;;;;;;;3.70;0.90;;;;;;;14.23;100.00;100047.47;5587708;31;33758;-63
2023/07/27 00:21:35;;;;;;;3.28;1.25;;;;;;;14.18;100.00;100055.25;5588309;31;33894;-65
2023/07/27 00:24:37;;;;;;;2.22;0.90;;;;;;;14.15;100.00;100059.12;5589991;31;34425;-64
2023/07/27 00:27:40;;;;;;;3.62;0.90;;;;;;;14.08;100.00;100052.12;5590802;31;33762;-63
2023/07/27 00:30:43;;;;;;;2.78;1.10;;;;;;;14.06;100.00;100065.66;5590754;31;34503;-65
2023/07/27 00:33:47;;;;;;;2.60;1.08;;;;;;;13.97;100.00;100064.16;5590722;31;33695;-63
2023/07/27 00:36:50;;;;;;;3.92;0.90;;;;;;;13.97;100.00;100076.66;5590948;31;34365;-64
2023/07/27 00:39:54;;;;;;;2.22;1.05;;;;;;;13.89;100.00;100072.34;5590945;31;33365;-63
2023/07/27 00:42:56;;;;;;;3.33;1.10;;;;;;;13.82;100.00;100072.28;5590760;31;32392;-65
2023/07/27 00:46:03;;;;;;;1.52;0.98;;;;;;;13.77;100.00;100072.06;5590619;31;33849;-62
2023/07/27 00:49:07;;;;;;;3.35;1.00;;;;;;;13.76;100.00;100065.06;5590008;31;34049;-63
2023/07/27 00:52:11;;;;;;;1.65;1.00;;;;;;;13.77;100.00;100064.06;5589778;31;33683;-63
2023/07/27 00:55:14;;;;;;;2.97;1.17;;;;;;;13.74;100.00;100052.97;5590478;31;33774;-62
2023/07/27 00:58:18;;;;;;;1.90;1.10;;;;;;;13.68;100.00;100070.56;5590529;31;33757;-64
2023/07/27 01:01:22;;;;;;;2.25;1.00;;;;;;;13.67;100.00;100068.91;5590465;31;33747;-62
2023/07/27 01:04:25;;;;;;;1.92;1.10;;;;;;;13.65;100.00;100065.59;5589768;31;33374;-63
2023/07/27 01:07:28;;;;;;;4.35;1.50;;;;;;;13.59;100.00;100078.91;5590619;31;33722;-64
2023/07/27 01:11:05;;;;;;;2.62;1.15;;;;;;;13.61;100.00;100080.34;5590374;31;33844;-63
2023/07/27 01:14:08;;;;;;;3.15;1.00;;;;;;;13.50;100.00;100072.91;5590356;31;35226;-63
2023/07/27 01:17:33;;;;;;;2.97;1.30;;;;;;;13.48;100.00;100066.94;5590336;31;33861;-65
2023/07/27 01:20:51;;;;;;;3.65;1.10;;;;;;;13.42;100.00;100071.19;5590374;31;33712;-62
2023/07/27 01:24:00;;;;;;;2.83;1.27;;;;;;;13.46;100.00;100074.28;5590318;31;33265;-64
2023/07/27 01:27:23;;;;;;;1.33;1.00;;;;;;;13.42;100.00;100070.34;5589576;31;34058;-64
2023/07/27 01:30:47;;;;;;;2.90;1.35;;;;;;;13.41;100.00;100063.38;5589443;31;34451;-65
2023/07/27 01:33:58;;;;;;;2.12;1.20;;;;;;;13.46;100.00;100069.78;5590091;31;34108;-64
2023/07/27 01:37:04;;;;;;;1.98;1.30;;;;;;;13.40;100.00;100065.25;5589655;31;33973;-62
2023/07/27 01:40:09;;;;;;;2.85;1.40;;;;;;;13.44;100.00;100068.34;5590138;31;33915;-63
2023/07/27 01:43:13;;;;;;;3.28;1.27;;;;;;;13.42;100.00;100071.19;5590166;31;34490;-63
2023/07/27 01:46:17;;;;;;;2.25;1.70;;;;;;;13.40;100.00;100061.75;5589182;31;33881;-63
2023/07/27 01:49:22;;;;;;;1.80;1.15;;;;;;;13.42;100.00;100065.84;5589105;31;33832;-63
2023/07/27 01:52:26;;;;;;;2.70;1.20;;;;;;;13.33;100.00;100071.53;5589979;31;34731;-64
2023/07/27 01:55:30;;;;;;;3.35;1.40;;;;;;;13.33;100.00;100071.53;5589868;31;33722;-65
2023/07/27 01:58:37;;;;;;;3.33;1.45;;;;;;;13.31;100.00;100078.91;5589148;31;33934;-62
2023/07/27 02:01:42;;;;;;;2.17;1.33;;;;;;;13.30;100.00;100074.59;5589209;31;33722;-63
2023/07/27 02:04:48;;;;;;;1.45;1.02;;;;;;;13.24;100.00;100072.69;5589871;31;33308;-64
2023/07/27 02:07:51;;;;;;;2.83;1.12;;;;;;;13.21;100.00;100073.06;5589249;31;33907;-63
2023/07/27 02:11:03;;;;;;;1.80;1.10;;;;;;;13.14;100.00;100069.53;5589893;31;33327;-63
2023/07/27 02:14:18;;;;;;;3.85;1.33;;;;;;;13.00;100.00;100074.69;5589367;31;34064;-64
2023/07/27 02:17:26;;;;;;;4.45;1.30;;;;;;;12.99;100.00;100057.06;5589001;31;33702;-63
2023/07/27 02:20:34;;;;;;;1.62;1.30;;;;;;;12.99;100.00;100065.06;5589789;31;33708;-62
2023/07/27 02:23:38;;;;;;;4.60;1.40;;;;;;;12.92;100.00;100071.34;5589907;31;33776;-63
2023/07/27 02:26:42;;;;;;;2.20;1.40;;;;;;;12.89;100.00;100067.22;5589821;31;35270;-65
2023/07/27 02:29:46;;;;;;;2.80;1.40;;;;;;;12.91;100.00;100062.53;5589686;31;34975;-64
2023/07/27 02:32:49;;;;;;;1.77;1.33;;;;;;;12.83;100.00;100075.94;5589610;31;33398;-64
2023/07/27 02:35:54;;;;;;;4.37;1.50;;;;;;;12.88;100.00;100083.38;5589031;31;33766;-63
2023/07/27 02:38:58;;;;;;;1.77;1.10;;;;;;;12.87;100.00;100076.41;5589217;31;33761;-64
2023/07/27 02:42:01;;;;;;;3.45;1.40;;;;;;;12.85;100.00;100084.59;5589660;31;33793;-63
2023/07/27 02:45:05;;;;;;;2.20;1.35;;;;;;;12.91;100.00;100091.00;5589815;31;33722;-63
2023/07/27 02:48:08;;;;;;;2.70;1.45;;;;;;;12.98;100.00;100089.22;5589477;31;33777;-63
2023/07/27 02:51:11;;;;;;;1.60;1.50;;;;;;;12.92;100.00;100085.50;5588735;31;33853;-63
2023/07/27 02:54:14;;;;;;;1.92;1.37;;;;;;;12.88;100.00;100099.34;5589529;31;33686;-63
2023/07/27 02:57:18;;;;;;;2.22;1.30;;;;;;;12.84;100.00;100093.56;5589030;31;33904;-64
2023/07/27 03:00:21;;;;;;;1.60;1.30;;;;;;;12.89;100.00;100096.50;5588729;31;34410;-63
2023/07/27 03:03:26;;;;;;;3.65;1.40;;;;;;;12.92;100.00;100090.00;5588892;31;33703;-64
2023/07/27 03:06:30;;;;;;;2.08;1.20;;;;;;;12.92;100.00;100098.81;5589422;31;34358;-63
2023/07/27 03:09:34;;;;;;;3.30;1.20;;;;;;;12.89;100.00;100101.81;5588738;31;34507;-63
2023/07/27 03:12:37;;;;;;;2.37;1.40;;;;;;;12.81;100.00;100101.97;5589456;31;33576;-63
2023/07/27 03:15:41;;;;;;;3.03;1.33;;;;;;;12.80;100.00;100107.47;5589433;31;34660;-65
2023/07/27 03:18:44;;;;;;;4.60;1.10;;;;;;;12.76;100.00;100109.69;5589716;31;32683;-63
2023/07/27 03:21:50;;;;;;;1.95;1.20;;;;;;;12.80;100.00;100118.94;5589215;31;33848;-64
2023/07/27 03:24:53;;;;;;;4.22;1.48;;;;;;;12.79;100.00;100119.13;5589158;31;33725;-63
2023/07/27 03:27:57;;;;;;;2.70;1.30;;;;;;;12.74;100.00;100105.53;5589283;31;33746;-63
2023/07/27 03:30:59;;;;;;;1.80;1.23;;;;;;;12.71;100.00;100120.06;5589130;31;33667;-65
2023/07/27 03:34:03;;;;;;;1.52;1.30;;;;;;;12.72;100.00;100121.72;5588943;31;33808;-62
2023/07/27 03:37:05;;;;;;;2.75;1.30;;;;;;;12.74;100.00;100117.03;5588995;31;33761;-63
2023/07/27 03:40:09;;;;;;;5.43;1.60;;;;;;;12.76;100.00;100124.81;5588178;31;32881;-62
2023/07/27 03:43:12;;;;;;;2.95;1.37;;;;;;;12.69;100.00;100130.06;5588901;31;34426;-62
2023/07/27 03:46:16;;;;;;;4.03;1.20;;;;;;;12.77;100.00;100137.12;5588845;31;33720;-63
2023/07/27 03:49:21;;;;;;;3.83;1.42;;;;;;;12.81;100.00;100133.91;5588647;31;33891;-61
2023/07/27 03:52:24;;;;;;;1.80;1.40;;;;;;;12.74;100.00;100148.13;5588077;31;34527;-61
2023/07/27 03:55:27;;;;;;;2.62;1.37;;;;;;;12.84;100.00;100149.50;5588818;31;34045;-61
2023/07/27 03:58:31;;;;;;;3.78;1.23;;;;;;;12.82;100.00;100154.19;5587293;31;33739;-63
2023/07/27 04:01:34;;;;;;;3.45;1.33;;;;;;;12.87;100.00;100154.47;5588167;31;34693;-61
2023/07/27 04:04:37;;;;;;;2.65;1.50;;;;;;;12.93;100.00;100168.81;5588466;31;34541;-61
2023/07/27 04:07:42;;;;;;;4.07;1.60;;;;;;;12.89;100.00;100160.41;5588567;31;33850;-65
2023/07/27 04:10:45;;;;;;;2.70;1.65;;;;;;;12.90;100.00;100170.03;5588511;31;33789;-62
2023/07/27 04:13:48;;;;;;;22.00;11.15;;;;;;;12.90;100.00;100163.88;5588462;31;33729;-63
2023/07/27 04:16:51;;;;;;;3.33;1.48;;;;;;;12.90;100.00;100175.38;5587760;31;33778;-61
2023/07/27 04:19:54;;;;;;;3.00;1.40;;;;;;;12.89;100.00;100170.22;5588313;31;33765;-63
2023/07/27 04:22:58;;;;;;;2.17;1.42;;;;;;;12.94;100.00;100170.47;5588235;31;33705;-62
2023/07/27 04:26:02;;;;;;;2.53;1.50;;;;;;;12.91;100.00;100177.03;5588108;31;34270;-62
2023/07/27 04:29:06;;;;;;;2.08;1.35;;;;;;;12.91;100.00;100179.69;5588202;31;34467;-62
2023/07/27 04:32:08;;;;;;;1.50;1.20;;;;;;;12.96;100.00;100181.78;5588226;31;33828;-62
2023/07/27 04:35:11;;;;;;;2.72;1.50;;;;;;;13.16;100.00;100195.34;5587343;31;33669;-62
2023/07/27 04:38:14;;;;;;;2.42;1.40;;;;;;;13.13;100.00;100193.88;5588038;31;34573;-62
2023/07/27 04:41:17;;;;;;;2.78;1.33;;;;;;;13.20;100.00;100191.28;5588017;31;33629;-62
2023/07/27 04:44:20;;;;;;;4.47;1.48;;;;;;;13.25;100.00;100197.72;5587887;31;33967;-62
2023/07/27 04:47:23;;;;;;;4.03;1.50;;;;;;;13.23;100.00;100185.56;5587781;31;33710;-61
2023/07/27 04:50:26;;;;;;;3.33;1.50;;;;;;;13.28;100.00;100191.97;5587471;31;34386;-64
2023/07/27 04:53:29;;;;;;;2.65;1.50;;;;;;;13.22;100.00;100191.91;5586966;31;33747;-62
2023/07/27 04:56:32;;;;;;;3.30;1.48;;;;;;;13.29;100.00;100204.31;5573843;31;34387;-62
2023/07/27 04:59:36;;;;;;;4.15;1.60;;;;;;;13.32;100.00;100203.91;5587644;31;33858;-62
2023/07/27 05:02:39;;;;;;;3.75;1.42;;;;;;;13.41;100.00;100202.75;5586890;31;34329;-61
2023/07/27 05:05:43;;;;;;;2.30;1.42;;;;;;;13.48;100.00;100217.00;5587465;31;33735;-65
2023/07/27 05:08:46;;;;;;;2.17;1.30;;;;;;;13.51;100.00;100209.66;5586741;31;33830;-61
2023/07/27 05:11:52;;;;;;;4.05;1.40;;;;;;;13.57;100.00;100209.69;5589620;31;34500;-62
2023/07/27 05:14:55;;;;;;;5.87;1.48;;;;;;;13.67;100.00;100222.69;5590536;31;33566;-62
2023/07/27 05:17:59;;;;;;;3.00;1.40;;;;;;;13.77;100.00;100215.19;5590188;31;34065;-62
2023/07/27 05:21:01;;;;;;;4.10;1.60;;;;;;;13.73;100.00;100237.94;5590127;31;33722;-61
2023/07/27 05:24:05;;;;;;;2.25;1.45;;;;;;;13.80;100.00;100239.63;5589316;31;34518;-63
2023/07/27 05:27:08;;;;;;;4.93;1.52;;;;;;;13.96;100.00;100245.72;5590035;31;33827;-63
2023/07/27 05:30:11;;;;;;;2.20;1.60;;;;;;;13.88;100.00;100249.34;5590169;31;33734;-62
2023/07/27 05:33:14;;;;;;;3.85;1.40;;;;;;;14.04;100.00;100250.91;5589479;31;34523;-62
2023/07/27 05:36:17;;;;;;;4.93;1.40;;;;;;;14.19;100.00;100259.62;5589500;31;34655;-62
2023/07/27 05:39:20;;;;;;;4.47;1.50;;;;;;;14.32;100.00;100251.75;5589975;31;33770;-62
2023/07/27 05:42:23;;;;;;;2.65;1.30;;;;;;;14.22;100.00;100257.41;5589931;31;33771;-61
2023/07/27 05:45:27;;;;;;;5.87;1.35;;;;;;;14.37;100.00;100254.69;5589846;31;33828;-61
2023/07/27 05:48:30;;;;;;;3.62;1.60;;;;;;;14.57;100.00;100257.47;5589383;31;33708;-64
2023/07/27 05:51:33;;;;;;;2.22;1.40;;;;;;;14.49;100.00;100261.13;5589993;31;33705;-63
2023/07/27 05:54:37;;;;;;;6.35;1.40;;;;;;;14.59;100.00;100272.25;5588968;31;33680;-61
2023/07/27 05:57:42;;;;;;;3.22;1.40;;;;;;;14.69;100.00;100270.06;5590034;31;33548;-62
2023/07/27 06:00:45;;;;;;;2.12;1.40;;;;;;;14.90;100.00;100273.66;5589429;31;33710;-62
2023/07/27 06:03:49;;;;;;;2.58;1.42;;;;;;;14.87;100.00;100272.22;5589008;31;33844;-61
2023/07/27 06:07:08;;;;;;;2.45;1.45;;;;;;;15.01;100.00;100268.56;5589846;31;34959;-62
2023/07/27 06:10:11;;;;;;;2.53;1.40;;;;;;;14.97;100.00;100275.34;5588989;31;33994;-61
2023/07/27 06:13:15;;;;;;;3.20;1.45;;;;;;;15.09;100.00;100271.09;5589753;31;34358;-62
2023/07/27 06:16:18;;;;;;;3.70;1.50;;;;;;;15.16;100.00;100274.59;5589342;31;33900;-62
2023/07/27 06:19:21;;;;;;;4.15;1.60;;;;;;;15.29;100.00;100273.00;5589598;31;34419;-62
2023/07/27 06:22:24;;;;;;;4.90;1.60;;;;;;;15.32;100.00;100272.59;5589429;31;33881;-62
2023/07/27 06:25:27;;;;;;;3.97;1.40;;;;;;;15.52;100.00;100271.66;5589575;31;33829;-61
2023/07/27 06:28:30;;;;;;;6.62;1.45;;;;;;;15.36;100.00;100274.66;5588823;31;33784;-63
2023/07/27 06:31:33;;;;;;;2.45;1.60;;;;;;;15.43;100.00;100283.53;5589583;31;33786;-63
2023/07/27 06:34:36;;;;;;;5.43;1.60;;;;;;;15.58;100.00;100264.69;5589013;31;32380;-62
2023/07/27 06:37:39;;;;;;;4.95;1.40;;;;;;;15.69;100.00;100271.25;5589750;31;34477;-64
2023/07/27 06:40:42;;;;;;;10.55;1.65;;;;;;;15.78;100.00;100264.72;5589696;31;33714;-62
2023/07/27 06:43:45;;;;;;;3.25;1.50;;;;;;;15.87;100.00;100275.00;5588528;31;34431;-62
2023/07/27 06:46:48;;;;;;;2.83;1.48;;;;;;;15.86;100.00;100278.72;5589330;31;33966;-62
2023/07/27 06:49:51;;;;;;;4.93;1.65;;;;;;;15.94;100.00;100267.81;5588835;31;33698;-62
2023/07/27 06:52:54;;;;;;;6.10;1.67;;;;;;;16.16;100.00;100278.31;5589373;31;33722;-61
2023/07/27 06:55:57;;;;;;;5.28;1.50;;;;;;;16.29;100.00;100283.66;5589004;31;34387;-61
2023/07/27 06:59:00;;;;;;;3.03;1.73;;;;;;;16.63;100.00;100287.97;5589418;31;33603;-61
2023/07/27 07:02:04;;;;;;;5.78;1.65;;;;;;;16.62;100.00;100284.47;5588483;31;33641;-61
2023/07/27 07:05:07;;;;;;;2.90;1.52;;;;;;;16.69;100.00;100276.41;5588637;31;34295;-62
2023/07/27 07:08:10;;;;;;;4.25;1.30;;;;;;;16.94;100.00;100280.84;5589409;31;33654;-63
2023/07/27 07:11:14;;;;;;;3.35;1.40;;;;;;;17.46;100.00;100284.34;5589365;31;33951;-62
2023/07/27 07:14:16;;;;;;;3.62;1.45;;;;;;;17.34;100.00;100291.41;5589248;31;34415;-63
2023/07/27 07:17:20;;;;;;;3.70;1.50;;;;;;;17.36;100.00;100284.00;5588344;31;33867;-61
2023/07/27 07:20:23;;;;;;;3.03;1.35;;;;;;;17.64;100.00;100280.97;5589013;31;34387;-62
2023/07/27 07:23:26;;;;;;;1.85;1.30;;;;;;;17.90;98.89;100286.19;5588480;31;33723;-62
2023/07/27 07:26:29;;;;;;;2.75;1.30;;;;;;;18.14;96.41;100284.53;5588912;31;33841;-62
2023/07/27 07:29:32;;;;;;;3.35;1.30;;;;;;;18.73;92.43;100285.88;5588782;31;33772;-62
2023/07/27 07:32:35;;;;;;;3.25;1.30;;;;;;;19.17;85.46;100287.44;5587279;31;33743;-63
2023/07/27 07:35:42;;;;;;;3.78;1.30;;;;;;;19.84;78.14;100287.16;5588875;31;34328;-64
2023/07/27 07:38:45;;;;;;;1.65;1.00;;;;;;;19.51;74.44;100289.47;5588633;31;33835;-63
2023/07/27 07:41:48;;;;;;;4.12;1.33;;;;;;;19.44;77.35;100284.22;5588011;31;34279;-63
2023/07/27 07:44:51;;;;;;;2.08;1.10;;;;;;;19.94;71.50;100282.00;5588974;31;33796;-62
2023/07/27 07:47:54;;;;;;;2.87;1.20;;;;;;;21.19;64.90;100285.19;5588492;31;33808;-62
2023/07/27 07:50:57;;;;;;;2.62;1.10;;;;;;;21.31;65.04;100287.84;5581139;31;209431;-62
2023/07/27 07:54:00;;;;;;;4.47;1.58;;;;;;;21.11;62.81;100290.91;5588790;31;34059;-63
2023/07/27 07:57:03;;;;;;;3.03;1.00;;;;;;;21.62;60.71;100291.94;5588637;31;33787;-63
2023/07/27 08:00:07;;;;;;;7.35;1.20;;;;;;;22.51;57.19;100291.00;5588644;31;33694;-63
2023/07/27 08:03:15;;;;;;;3.60;1.40;;;;;;;22.37;58.10;100288.91;5587885;31;33835;-63
2023/07/27 08:06:18;;;;;;;1.65;0.98;;;;;;;22.00;57.55;100289.41;5588431;31;33881;-61
2023/07/27 08:09:21;;;;;;;5.85;1.12;;;;;;;22.13;56.81;100290.97;5588134;31;33569;-61
2023/07/27 08:12:24;;;;;;;7.22;3.62;;;;;;;23.38;52.63;100293.81;5587601;31;33724;-61
2023/07/27 08:15:27;;;;;;;2.08;1.08;;;;;;;23.33;53.23;100292.97;5588511;31;33264;-61
2023/07/27 08:18:32;;;;;;;6.32;1.80;;;;;;;22.52;53.05;100281.84;5587570;31;33949;-62
2023/07/27 08:21:35;;;;;;;6.10;1.90;;;;;;;21.88;55.12;100288.63;5588206;31;33791;-62
2023/07/27 08:24:38;;;;;;;1.70;0.90;;;;;;;23.25;51.75;100287.97;5588090;31;33727;-62
2023/07/27 08:27:41;;;;;;;2.10;1.10;;;;;;;23.69;50.46;100280.63;5588020;31;33799;-61
2023/07/27 08:30:44;;;;;;;3.45;1.20;;;;;;;23.78;50.28;100279.91;5588131;31;33712;-62
2023/07/27 08:33:47;;;;;;;4.45;1.17;;;;;;;24.45;47.63;100290.22;5588025;31;34389;-62
2023/07/27 08:36:52;;;;;;;2.42;1.00;;;;;;;23.99;47.95;100263.81;5587165;31;33858;-61
2023/07/27 08:39:54;;;;;;;5.00;1.42;;;;;;;24.66;47.67;100274.91;5588068;31;34440;-62
2023/07/27 08:42:58;;;;;;;1.85;1.20;;;;;;;25.38;44.84;100269.53;5587272;31;33625;-61
2023/07/27 08:46:02;;;;;;;1.87;1.12;;;;;;;24.11;48.02;100276.12;5589841;31;33837;-62
2023/07/27 08:49:12;;;;;;;1.95;0.98;;;;;;;24.09;49.15;100267.44;5590040;31;33842;-63
2023/07/27 08:52:15;;;;;;;5.00;1.37;;;;;;;24.53;45.89;100270.78;5589544;31;33767;-61
2023/07/27 08:55:18;;;;;;;2.72;1.05;;;;;;;24.21;45.59;100276.22;5590756;31;33657;-62
2023/07/27 08:58:21;;;;;;;2.03;1.12;;;;;;;23.15;48.01;100277.03;5590287;31;33338;-63
2023/07/27 09:01:26;;;;;;;3.20;1.15;;;;;;;25.00;45.68;100273.47;5590480;31;33743;-63
2023/07/27 09:04:30;;;;;;;2.92;1.00;;;;;;;25.60;44.46;100268.53;5590311;31;34353;-62
2023/07/27 09:07:33;;;;;;;4.30;1.25;;;;;;;26.88;42.17;100270.91;5590425;31;33769;-63
2023/07/27 09:10:38;;;;;;;2.72;1.30;;;;;;;25.91;41.54;100275.63;5590127;31;33762;-62
2023/07/27 09:13:42;;;;;;;4.07;0.95;;;;;;;25.67;42.43;100266.34;5589444;31;33723;-62
2023/07/27 09:16:46;;;;;;;3.15;1.00;;;;;;;25.71;41.97;100262.81;5589556;31;34850;-62
2023/07/27 09:19:50;;;;;;;4.65;1.12;;;;;;;26.43;40.29;100271.84;5589364;31;33654;-62
2023/07/27 09:22:55;;;;;;;3.90;1.05;;;;;;;24.97;42.18;100267.78;5590118;31;33833;-63
2023/07/27 09:25:59;;;;;;;5.05;1.15;;;;;;;24.67;42.86;100260.25;5589373;31;34394;-62
2023/07/27 09:29:05;;;;;;;1.65;1.00;;;;;;;23.84;43.76;100264.50;5590216;31;33790;-61
2023/07/27 09:32:09;;;;;;;1.95;1.10;;;;;;;23.45;44.10;100269.28;5589552;31;33797;-62
2023/07/27 09:35:16;;;;;;;4.43;1.08;;;;;;;24.59;42.82;100264.28;5589997;31;32317;-61
2023/07/27 09:38:27;;;;;;;3.75;1.23;;;;;;;25.33;42.22;100263.25;5590204;31;33789;-61
2023/07/27 09:41:33;;;;;;;4.32;1.17;;;;;;;26.67;39.83;100267.44;5590022;31;34281;-62
2023/07/27 09:44:52;;;;;;;2.80;1.27;;;;;;;27.10;39.61;100268.66;5589166;31;33414;-61
2023/07/27 09:47:55;;;;;;;1.67;0.93;;;;;;;26.69;38.15;100252.44;5589226;31;33864;-63
2023/07/27 09:50:59;;;;;;;2.67;1.25;;;;;;;27.00;39.08;100260.53;5589534;31;33703;-61
2023/07/27 09:54:04;;;;;;;2.05;1.30;;;;;;;27.17;38.54;100253.63;5589733;31;34901;-62
2023/07/27 09:57:07;;;;;;;2.87;1.20;;;;;;;25.50;41.43;100248.38;5588739;31;33756;-62
2023/07/27 10:00:13;;;;;;;1.50;1.10;;;;;;;25.40;41.86;100252.97;5589975;31;34189;-61
2023/07/27 10:03:17;;;;;;;1.35;1.00;;;;;;;28.11;36.57;100243.50;5589716;31;34459;-61
2023/07/27 10:06:21;;;;;;;2.08;1.17;;;;;;;27.96;36.18;100238.13;5589787;31;34215;-62
2023/07/27 10:09:24;;;;;;;3.72;1.00;;;;;;;26.16;38.91;100231.31;5590165;31;34649;-61
2023/07/27 10:12:28;;;;;;;1.37;1.00;;;;;;;26.41;38.56;100230.47;5589816;31;33847;-62
2023/07/27 10:15:31;;;;;;;2.95;1.05;;;;;;;28.02;35.77;100223.37;5589965;31;34470;-62
2023/07/27 10:18:42;;;;;;;1.85;1.02;;;;;;;29.38;33.84;100234.69;5590087;31;33690;-61
2023/07/27 10:21:48;;;;;;;1.90;1.00;;;;;;;28.68;34.50;100233.63;5589648;31;33784;-66
2023/07/27 10:24:53;;;;;;;1.90;1.30;;;;;;;29.11;33.21;100232.56;5589108;31;33834;-62
2023/07/27 10:27:57;;;;;;;3.45;1.00;;;;;;;26.75;36.40;100224.13;5589597;31;34650;-63
2023/07/27 10:31:20;;;;;;;2.80;0.90;;;;;;;28.06;35.08;100217.06;5589002;31;33735;-63
2023/07/27 10:34:25;;;;;;;2.25;1.10;;;;;;;28.14;34.45;100220.28;5589573;31;33705;-62
2023/07/27 10:37:53;;;;;;;1.50;0.93;;;;;;;26.95;36.05;100215.09;5588950;31;34395;-62
2023/07/27 10:41:11;;;;;;;3.97;1.25;;;;;;;28.05;35.54;100204.50;5589532;31;34263;-63
2023/07/27 10:44:14;;;;;;;2.78;1.27;;;;;;;27.08;37.36;100189.97;5589478;31;34893;-62
2023/07/27 10:47:25;;;;;;;2.08;1.20;;;;;;;26.62;37.37;100199.41;5575597;31;34715;-63
2023/07/27 10:50:28;;;;;;;6.30;1.00;;;;;;;27.07;37.78;100193.78;5589188;31;33730;-62
2023/07/27 10:53:35;;;;;;;1.65;1.10;;;;;;;29.05;34.86;100190.00;5588401;31;34529;-62
2023/07/27 10:56:40;;;;;;;2.37;0.88;;;;;;;28.63;34.18;100196.28;5576108;31;35142;-62
2023/07/27 10:59:46;;;;;;;4.15;1.42;;;;;;;30.53;30.75;100192.81;5589481;31;33984;-61
2023/07/27 11:02:50;;;;;;;1.90;1.08;;;;;;;29.80;32.10;100185.34;5588680;31;34515;-62
2023/07/27 11:06:07;;;;;;;2.55;1.10;;;;;;;31.35;30.09;100178.97;5589454;31;33854;-62
2023/07/27 11:09:16;;;;;;;3.28;1.10;;;;;;;31.02;30.22;100186.59;5587871;31;34869;-61
2023/07/27 11:12:19;;;;;;;2.95;1.10;;;;;;;31.72;29.29;100172.31;5589216;31;33854;-61
2023/07/27 11:15:24;;;;;;;1.62;0.85;;;;;;;34.17;26.46;100183.97;5589139;31;33878;-61
2023/07/27 11:18:29;;;;;;;5.45;1.00;;;;;;;32.10;28.57;100169.97;5589168;31;33683;-62
2023/07/27 11:21:32;;;;;;;4.20;0.80;;;;;;;27.97;32.21;100174.31;5588748;31;33779;-61
2023/07/27 11:24:36;;;;;;;1.90;1.20;;;;;;;29.68;31.30;100174.03;5588383;31;33827;-62
2023/07/27 11:27:39;;;;;;;2.58;1.10;;;;;;;28.99;31.01;100174.00;5588462;31;35060;-62
2023/07/27 11:30:42;;;;;;;2.45;1.02;;;;;;;29.92;30.21;100170.41;5589242;31;34115;-62
2023/07/27 11:33:45;;;;;;;1.67;1.02;;;;;;;30.36;29.71;100170.66;5589074;31;33837;-62
2023/07/27 11:36:56;;;;;;;1.73;0.90;;;;;;;31.26;29.12;100178.09;5589068;31;32603;-61
2023/07/27 11:39:59;;;;;;;2.55;1.20;;;;;;;31.43;28.97;100155.47;5589026;31;33854;-62
2023/07/27 11:43:03;;;;;;;1.87;0.90;;;;;;;32.64;27.33;100168.75;5588283;31;33818;-63
2023/07/27 11:46:07;;;;;;;2.25;0.98;;;;;;;29.59;30.76;100159.44;5589021;31;35405;-62
2023/07/27 11:49:13;;;;;;;2.08;1.10;;;;;;;31.95;27.22;100161.34;5588339;31;34922;-62
2023/07/27 11:52:20;;;;;;;2.47;1.00;;;;;;;28.37;30.55;100149.34;5588875;31;34015;-62
2023/07/27 11:55:24;;;;;;;4.93;1.10;;;;;;;29.15;30.48;100150.81;5588554;31;33728;-61
2023/07/27 11:58:27;;;;;;;2.45;1.00;;;;;;;31.37;29.40;100137.56;5588081;31;33961;-62
2023/07/27 12:01:34;;;;;;;2.40;1.12;;;;;;;28.08;33.19;100134.91;5588646;31;34813;-63
2023/07/27 12:04:37;;;;;;;4.10;1.10;;;;;;;25.87;35.37;100136.75;5588534;31;33920;-62
2023/07/27 12:07:41;;;;;;;1.17;1.00;;;;;;;29.58;30.33;100135.94;5588634;31;33754;-62
2023/07/27 12:10:54;;;;;;;2.08;0.90;;;;;;;31.74;27.85;100139.91;5587724;31;32548;-63
2023/07/27 12:14:08;;;;;;;2.53;1.05;;;;;;;30.36;28.95;100135.06;5587683;31;33867;-63
2023/07/27 12:17:11;;;;;;;5.80;1.70;;;;;;;32.76;25.86;100133.25;5587757;31;33588;-62
2023/07/27 12:20:17;;;;;;;2.55;0.80;;;;;;;32.39;25.42;100128.25;5589837;31;33501;-62
2023/07/27 12:23:40;;;;;;;1.80;0.85;;;;;;;33.26;26.07;100132.00;5590236;31;34460;-63
2023/07/27 12:26:43;;;;;;;1.20;0.80;;;;;;;31.72;26.70;100125.69;5590004;31;33756;-61
2023/07/27 12:29:50;;;;;;;4.75;0.95;;;;;;;31.83;26.90;100121.56;5590680;31;33800;-61
2023/07/27 12:32:53;;;;;;;1.98;0.90;;;;;;;32.87;26.38;100121.94;5590969;31;34598;-61
2023/07/27 12:35:56;;;;;;;4.00;1.20;;;;;;;30.96;27.70;100116.53;5590036;31;34043;-61
2023/07/27 12:38:58;;;;;;;3.67;1.30;;;;;;;30.41;28.69;100124.00;5590682;31;32486;-62
2023/07/27 12:42:02;;;;;;;3.83;0.90;;;;;;;29.18;30.38;100117.44;5590754;31;35272;-62
2023/07/27 12:45:08;;;;;;;1.48;0.80;;;;;;;31.36;27.70;100119.47;5590668;31;33794;-62
2023/07/27 12:48:11;;;;;;;2.45;1.00;;;;;;;29.29;29.58;100108.78;5590569;31;34174;-62
2023/07/27 12:51:14;;;;;;;4.18;0.90;;;;;;;26.09;33.76;100105.72;5589676;31;34797;-61
2023/07/27 12:54:18;;;;;;;2.85;1.15;;;;;;;26.55;34.49;100104.47;5590194;31;33628;-64
2023/07/27 12:57:23;;;;;;;3.62;1.80;;;;;;;28.71;29.59;100105.56;5590579;31;32764;-63
2023/07/27 13:00:26;;;;;;;3.97;1.23;;;;;;;30.02;28.02;100102.63;5590254;31;32163;-62
2023/07/27 13:03:29;;;;;;;1.95;1.10;;;;;;;33.18;25.48;100101.44;5590556;31;34555;-62
2023/07/27 13:06:32;;;;;;;5.12;0.90;;;;;;;33.46;24.83;100103.81;5590456;31;33754;-61
2023/07/27 13:09:36;;;;;;;1.75;1.10;;;;;;;32.81;24.80;100099.31;5589583;31;34738;-62
2023/07/27 13:12:42;;;;;;;1.52;1.00;;;;;;;34.67;23.17;100105.00;5590232;31;33934;-61
2023/07/27 13:15:44;;;;;;;3.35;0.90;;;;;;;34.10;23.43;100095.53;5590280;31;34513;-62
2023/07/27 13:18:48;;;;;;;2.28;0.82;;;;;;;32.15;25.72;100093.00;5590090;31;33920;-62
2023/07/27 13:21:50;;;;;;;1.67;0.90;;;;;;;29.31;29.60;100092.94;5590147;31;34026;-62
2023/07/27 13:24:53;;;;;;;4.45;0.98;;;;;;;26.85;32.57;100079.00;5590270;31;34098;-61
2023/07/27 13:27:56;;;;;;;2.92;1.05;;;;;;;26.50;33.17;100065.59;5589679;31;33829;-61
2023/07/27 13:30:59;;;;;;;3.92;1.02;;;;;;;25.27;35.03;100077.00;5589508;31;33983;-60
2023/07/27 13:34:02;;;;;;;3.22;0.90;;;;;;;26.98;33.50;100074.84;5590189;31;33962;-61
2023/07/27 13:37:06;;;;;;;7.65;1.00;;;;;;;29.94;28.50;100078.72;5589317;31;34474;-63
2023/07/27 13:40:09;;;;;;;4.07;0.80;;;;;;;30.93;27.17;100072.53;5589223;31;33874;-61
2023/07/27 13:43:13;;;;;;;1.90;0.95;;;;;;;31.98;26.59;100076.44;5590414;31;34960;-62
2023/07/27 13:46:16;;;;;;;2.28;1.02;;;;;;;32.38;25.13;100060.78;5589091;31;34256;-61
2023/07/27 13:49:19;;;;;;;2.83;1.00;;;;;;;29.49;28.80;100068.59;5588928;31;33828;-61
2023/07/27 13:52:22;;;;;;;1.23;0.90;;;;;;;29.31;29.37;100073.00;5588115;31;34557;-61
2023/07/27 13:55:25;;;;;;;1.98;1.00;;;;;;;31.35;27.14;100069.31;5588370;31;34518;-61
2023/07/27 13:58:28;;;;;;;1.35;0.93;;;;;;;35.22;23.66;100071.66;5590096;31;33885;-61
2023/07/27 14:01:31;;;;;;;2.92;0.90;;;;;;;33.49;24.23;100078.44;5590204;31;33850;-61
2023/07/27 14:04:35;;;;;;;3.45;0.93;;;;;;;36.41;21.55;100076.06;5589040;31;35714;-62
2023/07/27 14:07:38;;;;;;;2.40;1.00;;;;;;;34.80;22.49;100059.84;5589459;31;34594;-62
2023/07/27 14:10:41;;;;;;;1.75;0.90;;;;;;;35.70;21.68;100082.03;5588783;31;34572;-62
2023/07/27 14:13:44;;;;;;;4.05;1.10;;;;;;;35.59;21.77;100068.97;5589694;31;33839;-62